Terminal Aerodrome Forecast
Issued by NWS

Home | Current Version | Previous Version | Text Only | Print | Product List | Glossary On
Versions: 1 2 3 4 5 6 7 8 9 10 11 12
000
FTUS45 KABQ 300529
TAFAEG
TAF
KAEG 300529Z 3006/3106 02010KT P6SM SCT120
     FM300800 14011KT P6SM FEW120
     FM301900 17005KT P6SM FEW080
     FM302200 25008KT P6SM SCT080 BKN150
     FM310200 13008KT P6SM SCT130=

USA.gov is the U.S. government's official web portal to all federal, state and local government web resources and services.